Terminal Aerodrome Forecast
Issued by NWS

Home | Current Version | Previous Version | Text Only | Print | Product List | Glossary On
Versions: 1 2 3 4 5 6 7 8 9 10 11 12 13 14 15 16 17 18 19 20 21 22 23 24
000
FTUS46 KLOX 221900 AAA
TAFLGB
TAF AMD
KLGB 221957Z 2220/2318 19005KT P6SM SCT020
     FM222000 18007KT P6SM SKC
     FM222300 30010KT P6SM SKC
     FM230400 VRB03KT P6SM SKC
     FM230900 VRB03KT P6SM BKN012
     FM231100 VRB03KT P6SM OVC010=

USA.gov is the U.S. government's official web portal to all federal, state and local government web resources and services.